sensor_id;sensor_type;location;lat;lon;timestamp;temperature;humidity
74940;HTU21D;63505;45.226;37.908;2023-02-01T00:02:02;2.76;84.39
74940;HTU21D;63505;45.226;37.908;2023-02-01T00:04:29;2.78;84.38
74940;HTU21D;63505;45.226;37.908;2023-02-01T00:06:54;2.78;84.42
74940;HTU21D;63505;45.226;37.908;2023-02-01T00:09:20;2.75;84.42
74940;HTU21D;63505;45.226;37.908;2023-02-01T00:11:46;2.73;84.40
74940;HTU21D;63505;45.226;37.908;2023-02-01T00:14:12;2.67;84.42
74940;HTU21D;63505;45.226;37.908;2023-02-01T00:16:39;2.65;84.51
74940;HTU21D;63505;45.226;37.908;2023-02-01T00:19:10;2.64;84.55
74940;HTU21D;63505;45.226;37.908;2023-02-01T00:21:36;2.64;84.54
74940;HTU21D;63505;45.226;37.908;2023-02-01T00:24:03;2.62;84.55
74940;HTU21D;63505;45.226;37.908;2023-02-01T00:26:44;2.60;84.50
74940;HTU21D;63505;45.226;37.908;2023-02-01T00:29:13;2.56;84.51
74940;HTU21D;63505;45.226;37.908;2023-02-01T00:31:40;2.53;84.54
74940;HTU21D;63505;45.226;37.908;2023-02-01T00:34:06;2.53;84.58
74940;HTU21D;63505;45.226;37.908;2023-02-01T00:36:33;2.52;84.56
74940;HTU21D;63505;45.226;37.908;2023-02-01T00:38:59;2.50;84.60
74940;HTU21D;63505;45.226;37.908;2023-02-01T00:41:25;2.50;84.62
74940;HTU21D;63505;45.226;37.908;2023-02-01T00:43:52;2.47;84.58
74940;HTU21D;63505;45.226;37.908;2023-02-01T00:46:19;2.46;84.54
74940;HTU21D;63505;45.226;37.908;2023-02-01T00:48:45;2.32;84.49
74940;HTU21D;63505;45.226;37.908;2023-02-01T00:51:14;2.21;84.52
74940;HTU21D;63505;45.226;37.908;2023-02-01T00:53:40;2.12;84.77
74940;HTU21D;63505;45.226;37.908;2023-02-01T00:56:06;2.05;84.73
74940;HTU21D;63505;45.226;37.908;2023-02-01T00:58:33;1.91;84.78
74940;HTU21D;63505;45.226;37.908;2023-02-01T01:01:08;1.88;84.98
74940;HTU21D;63505;45.226;37.908;2023-02-01T01:03:36;1.77;84.93
74940;HTU21D;63505;45.226;37.908;2023-02-01T01:06:03;1.58;85.14
74940;HTU21D;63505;45.226;37.908;2023-02-01T01:08:30;1.45;85.54
74940;HTU21D;63505;45.226;37.908;2023-02-01T01:10:56;1.43;85.84
74940;HTU21D;63505;45.226;37.908;2023-02-01T01:13:23;1.47;85.87
74940;HTU21D;63505;45.226;37.908;2023-02-01T01:15:48;1.47;85.80
74940;HTU21D;63505;45.226;37.908;2023-02-01T01:18:14;1.43;85.81
74940;HTU21D;63505;45.226;37.908;2023-02-01T01:20:41;1.39;85.84
74940;HTU21D;63505;45.226;37.908;2023-02-01T01:23:08;1.35;86.00
74940;HTU21D;63505;45.226;37.908;2023-02-01T01:25:38;1.34;86.09
74940;HTU21D;63505;45.226;37.908;2023-02-01T01:28:06;1.31;86.18
74940;HTU21D;63505;45.226;37.908;2023-02-01T01:30:34;1.26;86.41
74940;HTU21D;63505;45.226;37.908;2023-02-01T01:33:00;1.25;86.57
74940;HTU21D;63505;45.226;37.908;2023-02-01T01:35:29;1.21;86.68
74940;HTU21D;63505;45.226;37.908;2023-02-01T01:37:55;1.19;86.80
74940;HTU21D;63505;45.226;37.908;2023-02-01T01:40:21;1.19;86.92
74940;HTU21D;63505;45.226;37.908;2023-02-01T01:42:48;1.19;87.00
74940;HTU21D;63505;45.226;37.908;2023-02-01T01:45:33;1.21;87.00
74940;HTU21D;63505;45.226;37.908;2023-02-01T01:48:13;1.23;86.96
74940;HTU21D;63505;45.226;37.908;2023-02-01T01:50:46;1.17;86.88
74940;HTU21D;63505;45.226;37.908;2023-02-01T01:53:18;1.12;86.99
74940;HTU21D;63505;45.226;37.908;2023-02-01T01:55:47;1.19;87.03
74940;HTU21D;63505;45.226;37.908;2023-02-01T01:58:22;1.21;86.94
74940;HTU21D;63505;45.226;37.908;2023-02-01T02:00:49;1.23;86.92
74940;HTU21D;63505;45.226;37.908;2023-02-01T02:03:19;1.23;86.80
74940;HTU21D;63505;45.226;37.908;2023-02-01T02:05:48;1.20;86.85
74940;HTU21D;63505;45.226;37.908;2023-02-01T02:08:15;1.21;86.93
74940;HTU21D;63505;45.226;37.908;2023-02-01T02:10:42;1.28;87.02
74940;HTU21D;63505;45.226;37.908;2023-02-01T02:13:33;1.39;86.90
74940;HTU21D;63505;45.226;37.908;2023-02-01T02:21:36;1.42;86.64
74940;HTU21D;63505;45.226;37.908;2023-02-01T02:24:32;1.38;86.58
74940;HTU21D;63505;45.226;37.908;2023-02-01T02:27:02;1.37;86.58
74940;HTU21D;63505;45.226;37.908;2023-02-01T02:32:35;1.19;86.94
74940;HTU21D;63505;45.226;37.908;2023-02-01T02:40:54;1.10;87.53
74940;HTU21D;63505;45.226;37.908;2023-02-01T02:43:54;1.10;87.70
74940;HTU21D;63505;45.226;37.908;2023-02-01T02:46:58;1.11;87.73
74940;HTU21D;63505;45.226;37.908;2023-02-01T02:53:04;1.06;87.89
74940;HTU21D;63505;45.226;37.908;2023-02-01T02:55:52;0.99;88.13
74940;HTU21D;63505;45.226;37.908;2023-02-01T02:58:38;0.97;88.36
74940;HTU21D;63505;45.226;37.908;2023-02-01T03:01:23;0.96;88.51
74940;HTU21D;63505;45.226;37.908;2023-02-01T03:04:08;0.96;88.68
74940;HTU21D;63505;45.226;37.908;2023-02-01T03:06:37;0.94;88.76
74940;HTU21D;63505;45.226;37.908;2023-02-01T03:09:07;0.92;88.94
74940;HTU21D;63505;45.226;37.908;2023-02-01T03:11:35;0.95;89.05
74940;HTU21D;63505;45.226;37.908;2023-02-01T03:14:23;0.92;89.09
74940;HTU21D;63505;45.226;37.908;2023-02-01T03:16:57;0.89;89.32
74940;HTU21D;63505;45.226;37.908;2023-02-01T03:19:29;0.90;89.44
74940;HTU21D;63505;45.226;37.908;2023-02-01T03:22:00;0.91;89.54
74940;HTU21D;63505;45.226;37.908;2023-02-01T03:24:32;0.94;89.53
74940;HTU21D;63505;45.226;37.908;2023-02-01T03:30:09;0.98;89.60
74940;HTU21D;63505;45.226;37.908;2023-02-01T03:32:38;0.97;89.60
74940;HTU21D;63505;45.226;37.908;2023-02-01T03:41:38;0.88;89.87
74940;HTU21D;63505;45.226;37.908;2023-02-01T03:47:27;0.87;90.09
74940;HTU21D;63505;45.226;37.908;2023-02-01T03:52:08;0.86;90.48
74940;HTU21D;63505;45.226;37.908;2023-02-01T03:54:36;0.89;90.57
74940;HTU21D;63505;45.226;37.908;2023-02-01T03:57:08;0.89;90.67
74940;HTU21D;63505;45.226;37.908;2023-02-01T03:59:41;0.92;90.88
74940;HTU21D;63505;45.226;37.908;2023-02-01T04:02:08;0.96;90.93
74940;HTU21D;63505;45.226;37.908;2023-02-01T04:04:34;0.97;91.04
74940;HTU21D;63505;45.226;37.908;2023-02-01T04:07:01;1.01;91.14
74940;HTU21D;63505;45.226;37.908;2023-02-01T04:09:27;1.04;91.23
74940;HTU21D;63505;45.226;37.908;2023-02-01T04:11:53;1.06;91.31
74940;HTU21D;63505;45.226;37.908;2023-02-01T04:14:19;1.09;91.35
74940;HTU21D;63505;45.226;37.908;2023-02-01T04:16:45;1.08;91.37
74940;HTU21D;63505;45.226;37.908;2023-02-01T04:19:11;1.08;91.48
74940;HTU21D;63505;45.226;37.908;2023-02-01T04:21:37;1.09;91.58
74940;HTU21D;63505;45.226;37.908;2023-02-01T04:24:03;1.10;91.66
74940;HTU21D;63505;45.226;37.908;2023-02-01T04:26:29;1.09;91.77
74940;HTU21D;63505;45.226;37.908;2023-02-01T04:28:55;1.07;91.90
74940;HTU21D;63505;45.226;37.908;2023-02-01T04:31:21;1.08;91.99
74940;HTU21D;63505;45.226;37.908;2023-02-01T04:33:54;1.06;92.08
74940;HTU21D;63505;45.226;37.908;2023-02-01T04:36:21;1.09;92.21
74940;HTU21D;63505;45.226;37.908;2023-02-01T04:38:48;1.09;92.31
74940;HTU21D;63505;45.226;37.908;2023-02-01T04:41:15;1.10;92.41
74940;HTU21D;63505;45.226;37.908;2023-02-01T04:43:46;1.11;92.43
74940;HTU21D;63505;45.226;37.908;2023-02-01T04:46:12;1.11;92.48
74940;HTU21D;63505;45.226;37.908;2023-02-01T04:48:38;1.11;92.55
74940;HTU21D;63505;45.226;37.908;2023-02-01T04:51:04;1.13;92.64
74940;HTU21D;63505;45.226;37.908;2023-02-01T04:53:30;1.13;92.69
74940;HTU21D;63505;45.226;37.908;2023-02-01T04:55:55;1.14;92.77
74940;HTU21D;63505;45.226;37.908;2023-02-01T04:58:21;1.14;92.81
74940;HTU21D;63505;45.226;37.908;2023-02-01T05:00:47;1.14;92.87
74940;HTU21D;63505;45.226;37.908;2023-02-01T05:03:13;1.17;92.96
74940;HTU21D;63505;45.226;37.908;2023-02-01T05:05:39;1.17;93.02
74940;HTU21D;63505;45.226;37.908;2023-02-01T05:08:05;1.18;93.08
74940;HTU21D;63505;45.226;37.908;2023-02-01T05:10:31;1.14;93.09
74940;HTU21D;63505;45.226;37.908;2023-02-01T05:12:57;1.13;93.19
74940;HTU21D;63505;45.226;37.908;2023-02-01T05:15:41;1.13;93.24
74940;HTU21D;63505;45.226;37.908;2023-02-01T05:18:07;1.11;93.32
74940;HTU21D;63505;45.226;37.908;2023-02-01T05:20:33;1.11;93.42
74940;HTU21D;63505;45.226;37.908;2023-02-01T05:22:59;1.11;93.50
74940;HTU21D;63505;45.226;37.908;2023-02-01T05:25:25;1.11;93.53
74940;HTU21D;63505;45.226;37.908;2023-02-01T05:27:51;1.10;93.63
74940;HTU21D;63505;45.226;37.908;2023-02-01T05:30:17;1.08;93.67
74940;HTU21D;63505;45.226;37.908;2023-02-01T05:32:42;1.07;93.73
74940;HTU21D;63505;45.226;37.908;2023-02-01T05:35:08;1.07;93.84
74940;HTU21D;63505;45.226;37.908;2023-02-01T05:37:34;1.11;93.92
74940;HTU21D;63505;45.226;37.908;2023-02-01T05:40:00;1.17;93.98
74940;HTU21D;63505;45.226;37.908;2023-02-01T05:42:26;1.19;93.91
74940;HTU21D;63505;45.226;37.908;2023-02-01T05:44:52;1.12;93.88
74940;HTU21D;63505;45.226;37.908;2023-02-01T05:47:18;1.10;93.98
74940;HTU21D;63505;45.226;37.908;2023-02-01T05:49:44;1.11;94.09
74940;HTU21D;63505;45.226;37.908;2023-02-01T05:52:10;1.13;94.14
74940;HTU21D;63505;45.226;37.908;2023-02-01T05:54:36;1.19;94.18
74940;HTU21D;63505;45.226;37.908;2023-02-01T05:57:01;1.22;94.19
74940;HTU21D;63505;45.226;37.908;2023-02-01T05:59:27;1.21;94.13
74940;HTU21D;63505;45.226;37.908;2023-02-01T06:01:53;1.21;94.23
74940;HTU21D;63505;45.226;37.908;2023-02-01T06:04:19;1.26;94.36
74940;HTU21D;63505;45.226;37.908;2023-02-01T06:06:45;1.34;94.43
74940;HTU21D;63505;45.226;37.908;2023-02-01T06:09:10;1.43;94.37
74940;HTU21D;63505;45.226;37.908;2023-02-01T06:11:36;1.47;94.37
74940;HTU21D;63505;45.226;37.908;2023-02-01T06:14:02;1.48;94.33
74940;HTU21D;63505;45.226;37.908;2023-02-01T06:16:28;1.51;94.36
74940;HTU21D;63505;45.226;37.908;2023-02-01T06:18:54;1.47;94.27
74940;HTU21D;63505;45.226;37.908;2023-02-01T06:21:20;1.42;94.35
74940;HTU21D;63505;45.226;37.908;2023-02-01T06:23:51;1.40;94.43
74940;HTU21D;63505;45.226;37.908;2023-02-01T06:26:17;1.41;94.48
74940;HTU21D;63505;45.226;37.908;2023-02-01T06:28:43;1.45;94.56
74940;HTU21D;63505;45.226;37.908;2023-02-01T06:31:10;1.46;94.59
74940;HTU21D;63505;45.226;37.908;2023-02-01T06:33:36;1.47;94.55
74940;HTU21D;63505;45.226;37.908;2023-02-01T06:36:04;1.47;94.62
74940;HTU21D;63505;45.226;37.908;2023-02-01T06:38:31;1.46;94.59
74940;HTU21D;63505;45.226;37.908;2023-02-01T06:40:57;1.48;94.78
74940;HTU21D;63505;45.226;37.908;2023-02-01T06:43:25;1.56;94.81
74940;HTU21D;63505;45.226;37.908;2023-02-01T06:45:52;1.63;94.85
74940;HTU21D;63505;45.226;37.908;2023-02-01T06:48:19;1.66;94.81
74940;HTU21D;63505;45.226;37.908;2023-02-01T06:50:45;1.66;94.75
74940;HTU21D;63505;45.226;37.908;2023-02-01T06:53:11;1.62;94.81
74940;HTU21D;63505;45.226;37.908;2023-02-01T06:55:37;1.66;94.90
74940;HTU21D;63505;45.226;37.908;2023-02-01T06:58:02;1.70;94.92
74940;HTU21D;63505;45.226;37.908;2023-02-01T07:00:29;1.77;94.95
74940;HTU21D;63505;45.226;37.908;2023-02-01T07:02:56;1.77;94.89
74940;HTU21D;63505;45.226;37.908;2023-02-01T07:05:23;1.79;94.93
74940;HTU21D;63505;45.226;37.908;2023-02-01T07:07:48;1.81;94.96
74940;HTU21D;63505;45.226;37.908;2023-02-01T07:10:14;1.83;94.91
74940;HTU21D;63505;45.226;37.908;2023-02-01T07:12:40;1.85;94.93
74940;HTU21D;63505;45.226;37.908;2023-02-01T07:15:06;1.92;95.08
74940;HTU21D;63505;45.226;37.908;2023-02-01T07:17:32;1.99;95.10
74940;HTU21D;63505;45.226;37.908;2023-02-01T07:19:58;2.07;95.08
74940;HTU21D;63505;45.226;37.908;2023-02-01T07:22:25;2.08;95.02
74940;HTU21D;63505;45.226;37.908;2023-02-01T07:24:52;2.12;95.03
74940;HTU21D;63505;45.226;37.908;2023-02-01T07:27:18;2.14;95.10
74940;HTU21D;63505;45.226;37.908;2023-02-01T07:29:44;2.23;95.16
74940;HTU21D;63505;45.226;37.908;2023-02-01T07:32:09;2.32;95.17
74940;HTU21D;63505;45.226;37.908;2023-02-01T07:34:35;2.39;95.17
74940;HTU21D;63505;45.226;37.908;2023-02-01T07:37:01;2.49;95.21
74940;HTU21D;63505;45.226;37.908;2023-02-01T07:39:27;2.51;95.06
74940;HTU21D;63505;45.226;37.908;2023-02-01T07:41:54;2.52;95.07
74940;HTU21D;63505;45.226;37.908;2023-02-01T07:44:22;2.50;95.03
74940;HTU21D;63505;45.226;37.908;2023-02-01T07:46:49;2.58;95.24
74940;HTU21D;63505;45.226;37.908;2023-02-01T07:49:15;2.65;95.18
74940;HTU21D;63505;45.226;37.908;2023-02-01T07:51:43;2.64;95.10
74940;HTU21D;63505;45.226;37.908;2023-02-01T07:54:09;2.66;95.09
74940;HTU21D;63505;45.226;37.908;2023-02-01T07:56:35;2.60;95.06
74940;HTU21D;63505;45.226;37.908;2023-02-01T07:59:01;2.67;95.18
74940;HTU21D;63505;45.226;37.908;2023-02-01T08:01:28;2.76;95.20
74940;HTU21D;63505;45.226;37.908;2023-02-01T08:03:55;2.71;95.01
74940;HTU21D;63505;45.226;37.908;2023-02-01T08:06:22;2.72;95.05
74940;HTU21D;63505;45.226;37.908;2023-02-01T08:08:49;2.81;95.22
74940;HTU21D;63505;45.226;37.908;2023-02-01T08:11:16;2.87;95.15
74940;HTU21D;63505;45.226;37.908;2023-02-01T08:13:42;2.94;95.12
74940;HTU21D;63505;45.226;37.908;2023-02-01T08:16:11;2.95;95.01
74940;HTU21D;63505;45.226;37.908;2023-02-01T08:18:38;2.95;95.04
74940;HTU21D;63505;45.226;37.908;2023-02-01T08:21:09;2.95;94.95
74940;HTU21D;63505;45.226;37.908;2023-02-01T08:23:39;2.99;94.92
74940;HTU21D;63505;45.226;37.908;2023-02-01T08:26:08;2.93;94.78
74940;HTU21D;63505;45.226;37.908;2023-02-01T08:28:35;2.94;94.85
74940;HTU21D;63505;45.226;37.908;2023-02-01T08:31:10;2.99;94.92
74940;HTU21D;63505;45.226;37.908;2023-02-01T08:33:36;3.09;94.85
74940;HTU21D;63505;45.226;37.908;2023-02-01T08:36:04;3.17;94.83
74940;HTU21D;63505;45.226;37.908;2023-02-01T08:38:30;3.25;94.70
74940;HTU21D;63505;45.226;37.908;2023-02-01T08:40:56;3.26;94.48
74940;HTU21D;63505;45.226;37.908;2023-02-01T08:43:22;3.29;94.57
74940;HTU21D;63505;45.226;37.908;2023-02-01T08:45:50;3.38;94.57
74940;HTU21D;63505;45.226;37.908;2023-02-01T08:48:19;3.52;94.52
74940;HTU21D;63505;45.226;37.908;2023-02-01T08:50:45;3.61;94.36
74940;HTU21D;63505;45.226;37.908;2023-02-01T08:53:11;3.67;94.27
74940;HTU21D;63505;45.226;37.908;2023-02-01T08:55:39;3.69;94.10
74940;HTU21D;63505;45.226;37.908;2023-02-01T08:58:05;3.71;94.10
74940;HTU21D;63505;45.226;37.908;2023-02-01T09:00:31;3.82;94.00
74940;HTU21D;63505;45.226;37.908;2023-02-01T09:02:57;3.89;93.93
74940;HTU21D;63505;45.226;37.908;2023-02-01T09:05:22;3.88;93.66
74940;HTU21D;63505;45.226;37.908;2023-02-01T09:07:52;3.87;93.53
74940;HTU21D;63505;45.226;37.908;2023-02-01T09:10:18;3.93;93.52
74940;HTU21D;63505;45.226;37.908;2023-02-01T09:12:44;4.13;93.52
74940;HTU21D;63505;45.226;37.908;2023-02-01T09:15:10;4.18;93.23
74940;HTU21D;63505;45.226;37.908;2023-02-01T09:17:36;4.41;93.31
74940;HTU21D;63505;45.226;37.908;2023-02-01T09:20:03;4.63;92.96
74940;HTU21D;63505;45.226;37.908;2023-02-01T09:22:29;4.77;92.62
74940;HTU21D;63505;45.226;37.908;2023-02-01T09:24:55;4.82;92.55
74940;HTU21D;63505;45.226;37.908;2023-02-01T09:27:21;4.81;92.36
74940;HTU21D;63505;45.226;37.908;2023-02-01T09:29:47;4.82;92.37
74940;HTU21D;63505;45.226;37.908;2023-02-01T09:32:22;4.86;92.14
74940;HTU21D;63505;45.226;37.908;2023-02-01T09:34:52;4.87;91.97
74940;HTU21D;63505;45.226;37.908;2023-02-01T09:37:19;5.03;91.90
74940;HTU21D;63505;45.226;37.908;2023-02-01T09:39:45;5.21;91.73
74940;HTU21D;63505;45.226;37.908;2023-02-01T09:47:36;5.31;90.90
74940;HTU21D;63505;45.226;37.908;2023-02-01T09:50:14;5.34;91.01
74940;HTU21D;63505;45.226;37.908;2023-02-01T09:53:21;5.53;90.95
74940;HTU21D;63505;45.226;37.908;2023-02-01T09:55:49;5.43;90.03
74940;HTU21D;63505;45.226;37.908;2023-02-01T09:58:29;5.37;89.95
74940;HTU21D;63505;45.226;37.908;2023-02-01T10:00:59;5.35;89.71
74940;HTU21D;63505;45.226;37.908;2023-02-01T10:03:30;5.32;89.68
74940;HTU21D;63505;45.226;37.908;2023-02-01T10:17:07;5.07;88.99
74940;HTU21D;63505;45.226;37.908;2023-02-01T10:22:11;4.96;88.81
74940;HTU21D;63505;45.226;37.908;2023-02-01T10:25:27;4.86;88.79
74940;HTU21D;63505;45.226;37.908;2023-02-01T10:27:35;4.75;88.74
74940;HTU21D;63505;45.226;37.908;2023-02-01T10:30:23;4.64;88.69
74940;HTU21D;63505;45.226;37.908;2023-02-01T10:33:07;4.57;88.71
74940;HTU21D;63505;45.226;37.908;2023-02-01T10:35:36;4.58;88.82
74940;HTU21D;63505;45.226;37.908;2023-02-01T10:38:02;4.66;88.82
74940;HTU21D;63505;45.226;37.908;2023-02-01T10:40:30;4.69;88.73
74940;HTU21D;63505;45.226;37.908;2023-02-01T10:43:00;4.73;88.64
74940;HTU21D;63505;45.226;37.908;2023-02-01T10:45:29;4.75;88.47
74940;HTU21D;63505;45.226;37.908;2023-02-01T10:47:57;4.69;88.41
74940;HTU21D;63505;45.226;37.908;2023-02-01T10:53:10;4.57;88.35
74940;HTU21D;63505;45.226;37.908;2023-02-01T10:58:16;4.64;88.35
74940;HTU21D;63505;45.226;37.908;2023-02-01T11:00:48;4.69;88.25
74940;HTU21D;63505;45.226;37.908;2023-02-01T11:03:21;4.73;88.16
74940;HTU21D;63505;45.226;37.908;2023-02-01T11:05:47;4.71;88.09
74940;HTU21D;63505;45.226;37.908;2023-02-01T11:08:16;4.71;88.11
74940;HTU21D;63505;45.226;37.908;2023-02-01T11:10:42;4.69;88.07
74940;HTU21D;63505;45.226;37.908;2023-02-01T11:13:15;4.71;88.15
74940;HTU21D;63505;45.226;37.908;2023-02-01T11:15:46;4.76;88.18
74940;HTU21D;63505;45.226;37.908;2023-02-01T11:18:18;4.78;88.11
74940;HTU21D;63505;45.226;37.908;2023-02-01T11:20:46;4.76;88.08
74940;HTU21D;63505;45.226;37.908;2023-02-01T11:23:20;4.73;88.05
74940;HTU21D;63505;45.226;37.908;2023-02-01T11:25:57;4.71;88.17
74940;HTU21D;63505;45.226;37.908;2023-02-01T11:28:35;4.78;88.18
74940;HTU21D;63505;45.226;37.908;2023-02-01T11:31:06;4.80;88.19
74940;HTU21D;63505;45.226;37.908;2023-02-01T11:33:36;4.84;88.26
74940;HTU21D;63505;45.226;37.908;2023-02-01T11:36:23;4.97;88.28
74940;HTU21D;63505;45.226;37.908;2023-02-01T11:39:29;5.15;88.23
74940;HTU21D;63505;45.226;37.908;2023-02-01T11:42:06;5.27;88.12
74940;HTU21D;63505;45.226;37.908;2023-02-01T11:44:43;5.45;88.18
74940;HTU21D;63505;45.226;37.908;2023-02-01T11:47:30;5.72;88.11
74940;HTU21D;63505;45.226;37.908;2023-02-01T11:49:59;5.90;88.01
74940;HTU21D;63505;45.226;37.908;2023-02-01T11:55:53;6.10;87.82
74940;HTU21D;63505;45.226;37.908;2023-02-01T12:01:45;6.21;87.74
74940;HTU21D;63505;45.226;37.908;2023-02-01T12:07:05;6.29;87.73
74940;HTU21D;63505;45.226;37.908;2023-02-01T12:12:41;6.19;87.73
74940;HTU21D;63505;45.226;37.908;2023-02-01T12:15:22;6.14;87.64
74940;HTU21D;63505;45.226;37.908;2023-02-01T12:46:43;5.01;87.74
74940;HTU21D;63505;45.226;37.908;2023-02-01T12:49:26;4.89;87.76
74940;HTU21D;63505;45.226;37.908;2023-02-01T12:51:58;4.82;87.80
74940;HTU21D;63505;45.226;37.908;2023-02-01T12:57:03;4.69;87.73
74940;HTU21D;63505;45.226;37.908;2023-02-01T12:59:51;4.63;87.73
74940;HTU21D;63505;45.226;37.908;2023-02-01T13:02:43;4.54;87.71
74940;HTU21D;63505;45.226;37.908;2023-02-01T13:05:18;4.51;87.76
74940;HTU21D;63505;45.226;37.908;2023-02-01T13:07:50;4.51;87.73
74940;HTU21D;63505;45.226;37.908;2023-02-01T13:13:22;4.50;87.58
74940;HTU21D;63505;45.226;37.908;2023-02-01T13:18:19;4.38;87.51
74940;HTU21D;63505;45.226;37.908;2023-02-01T13:21:06;4.36;87.51
74940;HTU21D;63505;45.226;37.908;2023-02-01T13:23:38;4.34;87.56
74940;HTU21D;63505;45.226;37.908;2023-02-01T13:26:05;4.36;87.51
74940;HTU21D;63505;45.226;37.908;2023-02-01T13:28:53;4.32;87.44
74940;HTU21D;63505;45.226;37.908;2023-02-01T13:43:23;4.21;87.35
74940;HTU21D;63505;45.226;37.908;2023-02-01T13:45:53;4.19;87.35
74940;HTU21D;63505;45.226;37.908;2023-02-01T13:48:59;4.17;87.33
74940;HTU21D;63505;45.226;37.908;2023-02-01T13:54:04;4.06;87.28
74940;HTU21D;63505;45.226;37.908;2023-02-01T13:56:40;4.02;87.32
74940;HTU21D;63505;45.226;37.908;2023-02-01T14:16:10;3.76;87.31
74940;HTU21D;63505;45.226;37.908;2023-02-01T14:23:43;3.68;87.35
74940;HTU21D;63505;45.226;37.908;2023-02-01T14:26:15;3.67;87.31
74940;HTU21D;63505;45.226;37.908;2023-02-01T14:28:52;3.62;87.35
74940;HTU21D;63505;45.226;37.908;2023-02-01T14:31:48;3.62;87.35
74940;HTU21D;63505;45.226;37.908;2023-02-01T14:34:48;3.60;87.32
74940;HTU21D;63505;45.226;37.908;2023-02-01T14:53:16;3.47;87.24
74940;HTU21D;63505;45.226;37.908;2023-02-01T15:06:56;3.26;87.23
74940;HTU21D;63505;45.226;37.908;2023-02-01T15:09:31;3.26;87.22
74940;HTU21D;63505;45.226;37.908;2023-02-01T15:12:03;3.26;87.19
74940;HTU21D;63505;45.226;37.908;2023-02-01T15:14:44;3.24;87.18
74940;HTU21D;63505;45.226;37.908;2023-02-01T15:17:27;3.21;87.12
74940;HTU21D;63505;45.226;37.908;2023-02-01T15:20:01;3.19;87.13
74940;HTU21D;63505;45.226;37.908;2023-02-01T15:22:29;3.17;87.09
74940;HTU21D;63505;45.226;37.908;2023-02-01T15:25:00;3.16;87.12
74940;HTU21D;63505;45.226;37.908;2023-02-01T15:27:27;3.16;87.10
74940;HTU21D;63505;45.226;37.908;2023-02-01T15:29:53;3.16;87.07
74940;HTU21D;63505;45.226;37.908;2023-02-01T15:32:37;3.17;87.06
74940;HTU21D;63505;45.226;37.908;2023-02-01T15:35:33;3.16;87.02
74940;HTU21D;63505;45.226;37.908;2023-02-01T15:43:27;3.14;86.96
74940;HTU21D;63505;45.226;37.908;2023-02-01T15:46:01;3.14;86.95
74940;HTU21D;63505;45.226;37.908;2023-02-01T15:48:34;3.14;86.93
74940;HTU21D;63505;45.226;37.908;2023-02-01T15:51:01;3.16;86.92
74940;HTU21D;63505;45.226;37.908;2023-02-01T15:53:28;3.18;86.90
74940;HTU21D;63505;45.226;37.908;2023-02-01T15:56:00;3.19;86.89
74940;HTU21D;63505;45.226;37.908;2023-02-01T15:58:27;3.21;86.82
74940;HTU21D;63505;45.226;37.908;2023-02-01T16:00:56;3.17;86.75
74940;HTU21D;63505;45.226;37.908;2023-02-01T16:06:09;3.04;86.75
74940;HTU21D;63505;45.226;37.908;2023-02-01T16:08:36;3.01;86.76
74940;HTU21D;63505;45.226;37.908;2023-02-01T16:13:35;2.91;86.78
74940;HTU21D;63505;45.226;37.908;2023-02-01T16:16:02;2.84;86.77
74940;HTU21D;63505;45.226;37.908;2023-02-01T16:18:29;2.76;86.78
74940;HTU21D;63505;45.226;37.908;2023-02-01T16:20:55;2.70;86.77
74940;HTU21D;63505;45.226;37.908;2023-02-01T16:23:21;2.64;86.83
74940;HTU21D;63505;45.226;37.908;2023-02-01T16:25:47;2.58;86.86
74940;HTU21D;63505;45.226;37.908;2023-02-01T16:28:13;2.54;86.83
74940;HTU21D;63505;45.226;37.908;2023-02-01T16:30:39;2.50;86.86
74940;HTU21D;63505;45.226;37.908;2023-02-01T16:33:05;2.50;86.86
74940;HTU21D;63505;45.226;37.908;2023-02-01T16:35:34;2.53;86.88
74940;HTU21D;63505;45.226;37.908;2023-02-01T16:38:09;2.51;86.75
74940;HTU21D;63505;45.226;37.908;2023-02-01T16:40:39;2.49;86.71
74940;HTU21D;63505;45.226;37.908;2023-02-01T16:45:47;2.43;86.67
74940;HTU21D;63505;45.226;37.908;2023-02-01T16:48:34;2.44;86.61
74940;HTU21D;63505;45.226;37.908;2023-02-01T16:51:03;2.43;86.56
74940;HTU21D;63505;45.226;37.908;2023-02-01T16:53:32;2.39;86.52
74940;HTU21D;63505;45.226;37.908;2023-02-01T16:55:58;2.37;86.51
74940;HTU21D;63505;45.226;37.908;2023-02-01T16:58:25;2.34;86.49
74940;HTU21D;63505;45.226;37.908;2023-02-01T17:00:52;2.30;86.48
74940;HTU21D;63505;45.226;37.908;2023-02-01T17:03:19;2.30;86.46
74940;HTU21D;63505;45.226;37.908;2023-02-01T17:05:52;2.28;86.48
74940;HTU21D;63505;45.226;37.908;2023-02-01T17:08:27;2.28;86.45
74940;HTU21D;63505;45.226;37.908;2023-02-01T17:10:54;2.29;86.42
74940;HTU21D;63505;45.226;37.908;2023-02-01T17:13:20;2.29;86.41
74940;HTU21D;63505;45.226;37.908;2023-02-01T17:15:56;2.30;86.35
74940;HTU21D;63505;45.226;37.908;2023-02-01T17:18:23;2.28;86.35
74940;HTU21D;63505;45.226;37.908;2023-02-01T17:20:50;2.29;86.32
74940;HTU21D;63505;45.226;37.908;2023-02-01T17:23:26;2.28;86.30
74940;HTU21D;63505;45.226;37.908;2023-02-01T17:28:46;2.28;86.25
74940;HTU21D;63505;45.226;37.908;2023-02-01T17:31:13;2.29;86.27
74940;HTU21D;63505;45.226;37.908;2023-02-01T17:33:40;2.29;86.19
74940;HTU21D;63505;45.226;37.908;2023-02-01T17:36:12;2.27;86.18
74940;HTU21D;63505;45.226;37.908;2023-02-01T17:38:38;2.26;86.16
74940;HTU21D;63505;45.226;37.908;2023-02-01T17:41:04;2.25;86.13
74940;HTU21D;63505;45.226;37.908;2023-02-01T17:43:30;2.24;86.12
74940;HTU21D;63505;45.226;37.908;2023-02-01T17:46:03;2.24;86.12
74940;HTU21D;63505;45.226;37.908;2023-02-01T17:48:30;2.24;86.10
74940;HTU21D;63505;45.226;37.908;2023-02-01T17:50:56;2.21;86.09
74940;HTU21D;63505;45.226;37.908;2023-02-01T17:53:26;2.22;86.08
74940;HTU21D;63505;45.226;37.908;2023-02-01T17:55:53;2.19;86.07
74940;HTU21D;63505;45.226;37.908;2023-02-01T17:58:21;2.19;86.07
74940;HTU21D;63505;45.226;37.908;2023-02-01T18:00:48;2.17;86.03
74940;HTU21D;63505;45.226;37.908;2023-02-01T18:03:29;2.15;86.03
74940;HTU21D;63505;45.226;37.908;2023-02-01T18:05:58;2.12;86.01
74940;HTU21D;63505;45.226;37.908;2023-02-01T18:08:29;2.09;86.02
74940;HTU21D;63505;45.226;37.908;2023-02-01T18:10:57;2.08;86.02
74940;HTU21D;63505;45.226;37.908;2023-02-01T18:13:27;2.08;86.03
74940;HTU21D;63505;45.226;37.908;2023-02-01T18:15:54;2.09;86.00
74940;HTU21D;63505;45.226;37.908;2023-02-01T18:18:20;2.08;86.01
74940;HTU21D;63505;45.226;37.908;2023-02-01T18:20:47;2.09;85.98
74940;HTU21D;63505;45.226;37.908;2023-02-01T18:23:21;2.08;85.95
74940;HTU21D;63505;45.226;37.908;2023-02-01T18:25:48;2.08;85.94
74940;HTU21D;63505;45.226;37.908;2023-02-01T18:28:14;2.07;85.92
74940;HTU21D;63505;45.226;37.908;2023-02-01T18:30:43;2.06;85.90
74940;HTU21D;63505;45.226;37.908;2023-02-01T18:33:11;2.08;85.90
74940;HTU21D;63505;45.226;37.908;2023-02-01T18:35:37;2.08;85.87
74940;HTU21D;63505;45.226;37.908;2023-02-01T18:38:03;2.08;85.84
74940;HTU21D;63505;45.226;37.908;2023-02-01T18:40:33;2.07;85.84